Time;durP1;ratioP1;P1;durP2;ratioP2;P2;SDS_P1;SDS_P2;PMS_P1;PMS_P2;Temp;Humidity;BMP_temperature;BMP_pressure;BME280_temperature;BME280_humidity;BME280_pressure;Samples;Min_cycle;Max_cycle;Signal;HPM_P1;HPM_P2
2023/04/17 00:00:42;;;;;;;11.65;10.35;;;;;;;;;;5056158;28;20056;-57
2023/04/17 00:03:10;;;;;;;12.57;11.23;;;;;;;;;;5056020;28;20440;-58
2023/04/17 00:05:37;;;;;;;17.05;12.85;;;;;;;;;;5056081;28;20047;-58
2023/04/17 00:08:03;;;;;;;15.70;12.25;;;;;;;;;;5055900;28;20025;-58
2023/04/17 00:10:29;;;;;;;13.82;10.20;;;;;;;;;;5055984;28;20032;-58
2023/04/17 00:12:55;;;;;;;14.48;11.15;;;;;;;;;;5056068;28;20142;-58
2023/04/17 00:15:21;;;;;;;11.88;10.30;;;;;;;;;;5055822;28;20136;-58
2023/04/17 00:17:47;;;;;;;13.18;10.80;;;;;;;;;;5056073;28;20047;-58
2023/04/17 00:20:13;;;;;;;13.88;12.15;;;;;;;;;;5056092;28;20147;-58
2023/04/17 00:22:39;;;;;;;14.30;11.18;;;;;;;;;;5055730;28;20025;-58
2023/04/17 00:25:05;;;;;;;13.45;11.57;;;;;;;;;;5056006;28;20028;-58
2023/04/17 00:27:31;;;;;;;14.85;11.45;;;;;;;;;;5056002;28;20035;-58
2023/04/17 00:29:57;;;;;;;15.80;10.52;;;;;;;;;;5055582;28;20437;-58
2023/04/17 00:32:23;;;;;;;13.23;10.38;;;;;;;;;;5055859;28;20422;-58
2023/04/17 00:34:49;;;;;;;13.50;10.68;;;;;;;;;;5055810;28;20033;-58
2023/04/17 00:37:15;;;;;;;13.70;11.20;;;;;;;;;;5056246;28;20037;-58
2023/04/17 00:39:41;;;;;;;15.07;12.35;;;;;;;;;;5055412;28;20021;-58
2023/04/17 00:42:07;;;;;;;15.75;11.82;;;;;;;;;;5055574;28;20371;-58
2023/04/17 00:44:33;;;;;;;15.95;10.70;;;;;;;;;;5055377;28;20036;-58
2023/04/17 00:46:59;;;;;;;15.65;11.40;;;;;;;;;;5055302;28;20415;-58
2023/04/17 00:49:25;;;;;;;15.38;10.85;;;;;;;;;;5055371;28;20513;-58
2023/04/17 00:51:51;;;;;;;14.23;11.55;;;;;;;;;;5055141;28;20082;-58
2023/04/17 00:54:18;;;;;;;16.38;12.63;;;;;;;;;;5055426;28;20025;-58
2023/04/17 00:56:44;;;;;;;14.18;11.05;;;;;;;;;;5055370;28;20026;-58
2023/04/17 00:59:11;;;;;;;15.07;11.63;;;;;;;;;;5055457;28;20025;-58
2023/04/17 01:01:38;;;;;;;14.20;11.05;;;;;;;;;;5054987;28;20036;-58
2023/04/17 01:04:04;;;;;;;14.05;10.77;;;;;;;;;;5054712;28;20368;-58
2023/04/17 01:06:30;;;;;;;14.05;11.13;;;;;;;;;;5054889;28;20041;-58
2023/04/17 01:08:57;;;;;;;11.57;10.18;;;;;;;;;;5054750;28;20433;-58
2023/04/17 01:11:23;;;;;;;13.35;10.40;;;;;;;;;;5054818;28;20116;-58
2023/04/17 01:13:49;;;;;;;15.15;11.55;;;;;;;;;;5054612;28;20497;-58
2023/04/17 01:16:15;;;;;;;12.00;10.60;;;;;;;;;;5054942;28;20029;-58
2023/04/17 01:18:41;;;;;;;16.17;11.73;;;;;;;;;;5054615;28;20079;-58
2023/04/17 01:21:07;;;;;;;16.83;10.95;;;;;;;;;;5054889;28;20048;-58
2023/04/17 01:23:47;;;;;;;12.95;10.73;;;;;;;;;;5054580;28;20021;-58
2023/04/17 01:26:16;;;;;;;15.20;11.57;;;;;;;;;;5055118;28;20048;-58
2023/04/17 01:28:42;;;;;;;15.70;12.02;;;;;;;;;;5054461;28;20033;-58
2023/04/17 01:31:08;;;;;;;13.77;10.27;;;;;;;;;;5054386;28;20477;-58
2023/04/17 01:33:34;;;;;;;16.33;11.90;;;;;;;;;;5054721;28;20025;-58
2023/04/17 01:36:00;;;;;;;16.52;9.45;;;;;;;;;;5054669;28;20040;-58
2023/04/17 01:38:26;;;;;;;13.27;11.13;;;;;;;;;;5054287;28;20035;-58
2023/04/17 01:40:52;;;;;;;14.02;10.80;;;;;;;;;;5054164;28;20036;-58
2023/04/17 01:43:18;;;;;;;13.95;10.23;;;;;;;;;;5054311;28;20033;-58
2023/04/17 01:45:44;;;;;;;14.15;11.35;;;;;;;;;;5054776;28;20075;-58
2023/04/17 01:48:10;;;;;;;17.15;10.70;;;;;;;;;;5054103;28;20448;-58
2023/04/17 01:50:36;;;;;;;16.35;13.57;;;;;;;;;;5054405;28;20112;-58
2023/04/17 01:53:02;;;;;;;17.30;10.60;;;;;;;;;;5054014;28;20501;-58
2023/04/17 01:55:28;;;;;;;15.13;11.90;;;;;;;;;;5054173;28;20040;-58
2023/04/17 01:57:54;;;;;;;14.65;10.60;;;;;;;;;;5053668;28;20112;-58
2023/04/17 02:00:20;;;;;;;12.02;10.23;;;;;;;;;;5054011;28;20028;-58
2023/04/17 02:02:46;;;;;;;13.50;10.43;;;;;;;;;;5054204;28;20033;-58
2023/04/17 02:05:12;;;;;;;15.70;12.23;;;;;;;;;;5053618;28;20029;-58
2023/04/17 02:07:38;;;;;;;17.70;11.63;;;;;;;;;;5054321;28;20111;-58
2023/04/17 02:10:04;;;;;;;12.65;10.85;;;;;;;;;;5053763;28;20066;-58
2023/04/17 02:12:29;;;;;;;15.15;11.65;;;;;;;;;;5053744;28;20029;-58
2023/04/17 02:14:59;;;;;;;17.67;12.98;;;;;;;;;;5053825;28;20045;-58
2023/04/17 02:17:26;;;;;;;13.47;11.67;;;;;;;;;;5053699;28;20048;-60
2023/04/17 02:19:52;;;;;;;13.90;10.95;;;;;;;;;;5054213;28;20252;-58
2023/04/17 02:22:18;;;;;;;15.25;12.10;;;;;;;;;;5053563;28;20025;-58
2023/04/17 02:24:44;;;;;;;16.65;12.27;;;;;;;;;;5053639;28;20078;-58
2023/04/17 02:27:10;;;;;;;14.32;11.55;;;;;;;;;;5054170;28;20029;-58
2023/04/17 02:29:36;;;;;;;18.42;13.45;;;;;;;;;;5053797;28;20029;-58
2023/04/17 02:32:02;;;;;;;16.88;12.18;;;;;;;;;;5054342;28;20032;-58
2023/04/17 02:34:28;;;;;;;17.85;12.40;;;;;;;;;;5053504;28;20443;-58
2023/04/17 02:36:54;;;;;;;20.48;14.05;;;;;;;;;;5053284;28;20068;-58
2023/04/17 02:39:20;;;;;;;19.67;12.48;;;;;;;;;;5053542;28;20371;-58
2023/04/17 02:41:46;;;;;;;16.38;12.02;;;;;;;;;;5053448;28;20025;-58
2023/04/17 02:44:12;;;;;;;13.95;10.95;;;;;;;;;;5053485;28;20416;-58
2023/04/17 02:46:38;;;;;;;20.23;13.20;;;;;;;;;;5053732;28;20355;-58
2023/04/17 02:49:04;;;;;;;19.15;14.63;;;;;;;;;;5053446;28;20158;-58
2023/04/17 02:51:30;;;;;;;17.30;12.90;;;;;;;;;;5053126;28;20075;-58
2023/04/17 02:53:56;;;;;;;15.75;11.38;;;;;;;;;;5053420;28;20033;-58
2023/04/17 02:56:22;;;;;;;14.50;11.27;;;;;;;;;;5054138;28;20451;-58
2023/04/17 02:58:47;;;;;;;17.30;13.70;;;;;;;;;;5053341;28;20025;-58
2023/04/17 03:01:13;;;;;;;13.68;11.60;;;;;;;;;;5053373;28;20340;-58
2023/04/17 03:03:39;;;;;;;14.00;11.77;;;;;;;;;;5054064;28;20025;-58
2023/04/17 03:06:05;;;;;;;14.98;12.10;;;;;;;;;;5053325;28;20033;-58
2023/04/17 03:08:34;;;;;;;13.60;10.50;;;;;;;;;;5053207;28;20025;-58
2023/04/17 03:11:00;;;;;;;13.23;11.25;;;;;;;;;;5053703;28;20378;-58
2023/04/17 03:13:26;;;;;;;17.30;12.73;;;;;;;;;;5051855;28;20032;-58
2023/04/17 03:15:52;;;;;;;17.92;12.13;;;;;;;;;;5057185;28;20041;-58
2023/04/17 03:18:18;;;;;;;16.65;12.30;;;;;;;;;;5056717;28;20096;-58
2023/04/17 03:20:44;;;;;;;15.82;12.35;;;;;;;;;;5056963;28;20029;-58
2023/04/17 03:23:10;;;;;;;16.55;13.25;;;;;;;;;;5057375;28;20025;-58
2023/04/17 03:25:37;;;;;;;16.75;11.00;;;;;;;;;;5057111;28;20025;-58
2023/04/17 03:28:03;;;;;;;15.43;12.30;;;;;;;;;;5056771;28;20021;-58
2023/04/17 03:30:29;;;;;;;12.50;11.15;;;;;;;;;;5056997;28;20036;-58
2023/04/17 03:32:55;;;;;;;14.80;11.40;;;;;;;;;;5056737;28;20359;-58
2023/04/17 03:35:21;;;;;;;15.15;11.73;;;;;;;;;;5056990;28;20086;-58
2023/04/17 03:37:47;;;;;;;17.08;12.50;;;;;;;;;;5055696;28;20435;-58
2023/04/17 03:40:13;;;;;;;18.10;14.00;;;;;;;;;;5056912;28;20056;-58
2023/04/17 03:42:39;;;;;;;16.80;12.88;;;;;;;;;;5056493;28;20079;-58
2023/04/17 03:45:05;;;;;;;13.00;11.27;;;;;;;;;;5056467;28;20441;-58
2023/04/17 03:47:31;;;;;;;19.58;13.02;;;;;;;;;;5056491;28;20112;-58
2023/04/17 03:49:57;;;;;;;18.55;12.48;;;;;;;;;;5056744;28;20104;-58
2023/04/17 03:52:23;;;;;;;17.15;11.52;;;;;;;;;;5056513;28;20068;-57
2023/04/17 03:54:49;;;;;;;20.08;14.40;;;;;;;;;;5056575;28;20478;-59
2023/04/17 03:57:15;;;;;;;17.88;13.88;;;;;;;;;;5057104;28;20051;-58
2023/04/17 03:59:41;;;;;;;21.65;15.13;;;;;;;;;;5056852;28;20523;-59
2023/04/17 04:02:07;;;;;;;17.83;13.38;;;;;;;;;;5056701;28;20025;-59
2023/04/17 04:04:33;;;;;;;17.40;12.75;;;;;;;;;;5056455;28;20036;-59
2023/04/17 04:07:00;;;;;;;15.02;12.18;;;;;;;;;;5056689;28;20033;-59
2023/04/17 04:09:26;;;;;;;15.98;12.10;;;;;;;;;;5056288;28;20379;-59
2023/04/17 04:11:52;;;;;;;17.70;11.82;;;;;;;;;;5056536;28;20405;-58
2023/04/17 04:14:18;;;;;;;14.93;12.73;;;;;;;;;;5056654;28;20073;-59
2023/04/17 04:16:44;;;;;;;16.70;12.65;;;;;;;;;;5056357;28;20052;-59
2023/04/17 04:19:10;;;;;;;14.77;12.02;;;;;;;;;;5056379;28;20025;-59
2023/04/17 04:21:36;;;;;;;18.92;12.73;;;;;;;;;;5055509;28;20103;-59
2023/04/17 04:24:02;;;;;;;17.02;12.77;;;;;;;;;;5055849;28;20022;-59
2023/04/17 04:26:28;;;;;;;16.92;12.15;;;;;;;;;;5055846;28;20033;-59
2023/04/17 04:28:55;;;;;;;16.98;12.75;;;;;;;;;;5055726;28;20084;-59
2023/04/17 04:31:21;;;;;;;18.58;12.38;;;;;;;;;;5055598;28;20068;-59
2023/04/17 04:33:53;;;;;;;13.18;10.90;;;;;;;;;;5056166;28;20415;-59
2023/04/17 04:36:20;;;;;;;22.23;15.18;;;;;;;;;;5056343;28;20028;-59
2023/04/17 04:38:49;;;;;;;17.90;12.55;;;;;;;;;;5056019;28;20037;-59
2023/04/17 04:41:16;;;;;;;16.98;13.05;;;;;;;;;;5055368;28;20061;-59
2023/04/17 04:43:42;;;;;;;14.63;12.48;;;;;;;;;;5055613;28;20029;-59
2023/04/17 04:46:09;;;;;;;16.90;11.23;;;;;;;;;;5055946;28;20032;-59
2023/04/17 04:48:35;;;;;;;16.15;11.27;;;;;;;;;;5055332;28;20017;-59
2023/04/17 04:51:01;;;;;;;16.48;11.85;;;;;;;;;;5055560;28;20024;-59
2023/04/17 04:53:27;;;;;;;16.38;13.88;;;;;;;;;;5055777;28;20102;-59
2023/04/17 04:55:53;;;;;;;17.75;11.40;;;;;;;;;;5055729;28;20518;-59
2023/04/17 04:58:19;;;;;;;14.57;10.90;;;;;;;;;;5054921;28;20033;-59
2023/04/17 05:00:45;;;;;;;16.98;12.90;;;;;;;;;;5055566;28;20116;-59
2023/04/17 05:03:11;;;;;;;14.88;12.00;;;;;;;;;;5055217;28;20447;-59
2023/04/17 05:05:38;;;;;;;15.20;12.73;;;;;;;;;;5055605;28;20029;-58
2023/04/17 05:08:04;;;;;;;15.20;11.40;;;;;;;;;;5055071;28;20435;-59
2023/04/17 05:10:30;;;;;;;17.33;13.30;;;;;;;;;;5054917;28;20029;-59
2023/04/17 05:12:56;;;;;;;17.67;12.68;;;;;;;;;;5054819;28;20047;-59
2023/04/17 05:15:22;;;;;;;15.10;12.05;;;;;;;;;;5054917;28;20056;-59
2023/04/17 05:17:48;;;;;;;15.30;11.48;;;;;;;;;;5054989;28;20098;-59
2023/04/17 05:20:15;;;;;;;14.38;12.75;;;;;;;;;;5055164;28;20051;-59
2023/04/17 05:22:41;;;;;;;15.40;12.23;;;;;;;;;;5054882;28;20446;-59
2023/04/17 05:25:07;;;;;;;15.63;12.40;;;;;;;;;;5055007;28;20025;-59
2023/04/17 05:27:33;;;;;;;17.17;13.10;;;;;;;;;;5054351;28;20029;-59
2023/04/17 05:29:59;;;;;;;17.77;13.35;;;;;;;;;;5054383;28;20082;-59
2023/04/17 05:32:25;;;;;;;15.90;11.38;;;;;;;;;;5054678;28;20122;-59
2023/04/17 05:34:51;;;;;;;15.07;11.55;;;;;;;;;;5054767;28;20028;-59
2023/04/17 05:37:17;;;;;;;16.08;12.15;;;;;;;;;;5054303;28;20436;-59
2023/04/17 05:39:43;;;;;;;15.73;11.23;;;;;;;;;;5054262;28;20025;-59
2023/04/17 05:42:09;;;;;;;15.70;13.05;;;;;;;;;;5054218;28;20032;-59
2023/04/17 05:44:34;;;;;;;16.52;11.68;;;;;;;;;;5054207;28;20466;-60
2023/04/17 05:47:00;;;;;;;14.90;10.18;;;;;;;;;;5054516;28;20087;-60
2023/04/17 05:49:26;;;;;;;14.38;10.65;;;;;;;;;;5054242;28;20051;-60
2023/04/17 05:51:52;;;;;;;16.52;11.98;;;;;;;;;;5054103;28;20029;-60
2023/04/17 05:54:18;;;;;;;15.85;12.38;;;;;;;;;;5054093;28;20022;-60
2023/04/17 05:56:44;;;;;;;16.17;11.35;;;;;;;;;;5053652;28;20112;-60
2023/04/17 05:59:10;;;;;;;12.77;9.70;;;;;;;;;;5054112;28;20025;-60
2023/04/17 06:01:36;;;;;;;14.82;9.48;;;;;;;;;;5053914;28;20470;-60
2023/04/17 06:04:02;;;;;;;14.57;9.57;;;;;;;;;;5054153;28;20034;-60
2023/04/17 06:06:28;;;;;;;16.00;11.18;;;;;;;;;;5054241;28;20035;-57
2023/04/17 06:08:54;;;;;;;14.60;10.73;;;;;;;;;;5053788;28;20061;-58
2023/04/17 06:11:20;;;;;;;15.65;11.07;;;;;;;;;;5054156;28;20024;-58
2023/04/17 06:13:46;;;;;;;15.38;12.27;;;;;;;;;;5053760;28;20029;-58
2023/04/17 06:16:12;;;;;;;15.60;10.48;;;;;;;;;;5053671;28;20110;-58
2023/04/17 06:18:40;;;;;;;14.68;11.95;;;;;;;;;;5054098;28;20025;-59
2023/04/17 06:21:06;;;;;;;17.55;12.55;;;;;;;;;;5054035;28;20036;-59
2023/04/17 06:23:32;;;;;;;16.25;12.35;;;;;;;;;;5053596;28;20029;-59
2023/04/17 06:25:58;;;;;;;15.82;11.85;;;;;;;;;;5053857;28;20033;-59
2023/04/17 06:28:24;;;;;;;13.23;10.30;;;;;;;;;;5053799;28;20033;-59
2023/04/17 06:30:50;;;;;;;13.15;10.85;;;;;;;;;;5054044;28;20384;-59
2023/04/17 06:33:16;;;;;;;15.65;11.63;;;;;;;;;;5053547;28;20029;-58
2023/04/17 06:35:42;;;;;;;15.88;11.85;;;;;;;;;;5053861;28;20033;-58
2023/04/17 06:38:08;;;;;;;19.33;12.25;;;;;;;;;;5053561;28;20086;-59
2023/04/17 06:40:34;;;;;;;15.30;10.40;;;;;;;;;;5054064;28;20340;-59
2023/04/17 06:43:00;;;;;;;16.38;12.20;;;;;;;;;;5053437;28;20451;-58
2023/04/17 06:45:26;;;;;;;12.00;10.07;;;;;;;;;;5053694;28;20036;-59
2023/04/17 06:47:52;;;;;;;16.67;10.20;;;;;;;;;;5053575;28;20151;-59
2023/04/17 06:50:18;;;;;;;16.00;11.25;;;;;;;;;;5057367;28;20052;-59
2023/04/17 06:52:44;;;;;;;14.57;9.77;;;;;;;;;;5057992;28;20025;-59
2023/04/17 06:55:10;;;;;;;17.93;11.43;;;;;;;;;;5057380;28;20025;-59
2023/04/17 06:57:37;;;;;;;14.50;10.90;;;;;;;;;;5057022;28;20379;-59
2023/04/17 07:00:03;;;;;;;13.68;10.60;;;;;;;;;;5057906;28;20409;-59
2023/04/17 07:02:29;;;;;;;18.52;12.10;;;;;;;;;;5057801;28;20466;-59
2023/04/17 07:04:55;;;;;;;15.80;11.57;;;;;;;;;;5057529;28;20535;-59
2023/04/17 07:07:21;;;;;;;13.57;10.70;;;;;;;;;;5058065;28;20056;-59
2023/04/17 07:09:47;;;;;;;16.13;10.10;;;;;;;;;;5057212;28;20017;-59
2023/04/17 07:12:13;;;;;;;14.65;10.77;;;;;;;;;;5057759;28;20538;-59
2023/04/17 07:14:39;;;;;;;11.70;9.43;;;;;;;;;;5056841;28;20056;-59
2023/04/17 07:17:05;;;;;;;21.80;13.07;;;;;;;;;;5056863;28;20041;-59
2023/04/17 07:19:32;;;;;;;14.32;11.13;;;;;;;;;;5056921;28;20029;-59
2023/04/17 07:21:59;;;;;;;15.98;11.73;;;;;;;;;;5057409;28;20067;-59
2023/04/17 07:24:25;;;;;;;13.75;11.05;;;;;;;;;;5057468;28;20507;-59
2023/04/17 07:26:51;;;;;;;13.02;10.95;;;;;;;;;;5057437;28;20069;-59
2023/04/17 07:29:17;;;;;;;16.30;9.45;;;;;;;;;;5056846;28;20382;-59
2023/04/17 07:31:43;;;;;;;13.38;9.38;;;;;;;;;;5056523;28;20105;-59
2023/04/17 07:34:09;;;;;;;13.70;9.98;;;;;;;;;;5056763;28;20455;-59
2023/04/17 07:36:35;;;;;;;12.15;9.93;;;;;;;;;;5057304;28;20181;-59
2023/04/17 07:39:02;;;;;;;11.98;9.18;;;;;;;;;;5056657;28;20033;-59
2023/04/17 07:41:28;;;;;;;12.63;10.95;;;;;;;;;;5056616;28;20079;-59
2023/04/17 07:43:54;;;;;;;15.38;10.27;;;;;;;;;;5056353;28;20033;-59
2023/04/17 07:46:19;;;;;;;11.50;9.00;;;;;;;;;;5056763;28;20032;-59
2023/04/17 07:48:46;;;;;;;11.95;8.80;;;;;;;;;;5056502;28;20104;-59
2023/04/17 07:51:12;;;;;;;12.25;9.10;;;;;;;;;;5056310;28;20060;-59
2023/04/17 07:53:38;;;;;;;14.23;9.75;;;;;;;;;;5056678;28;20048;-59
2023/04/17 07:56:05;;;;;;;10.57;8.55;;;;;;;;;;5056872;28;20033;-59
2023/04/17 07:58:34;;;;;;;14.10;9.90;;;;;;;;;;5056520;28;20086;-59
2023/04/17 08:01:00;;;;;;;12.05;9.57;;;;;;;;;;5056049;28;20029;-60
2023/04/17 08:03:26;;;;;;;11.88;9.60;;;;;;;;;;5056352;28;20025;-60
2023/04/17 08:05:52;;;;;;;11.57;8.27;;;;;;;;;;5056172;28;20029;-60
2023/04/17 08:08:18;;;;;;;9.05;7.45;;;;;;;;;;5056552;28;20033;-60
2023/04/17 08:10:45;;;;;;;10.65;7.68;;;;;;;;;;5055954;28;20108;-60
2023/04/17 08:13:11;;;;;;;10.52;7.90;;;;;;;;;;5055550;28;20494;-60
2023/04/17 08:15:39;;;;;;;13.23;8.85;;;;;;;;;;5056430;28;20049;-60
2023/04/17 08:18:05;;;;;;;11.73;9.57;;;;;;;;;;5055850;28;20129;-59
2023/04/17 08:20:31;;;;;;;12.93;8.13;;;;;;;;;;5055843;28;20479;-60
2023/04/17 08:22:57;;;;;;;16.08;9.38;;;;;;;;;;5055819;28;20111;-59
2023/04/17 08:25:24;;;;;;;11.43;8.65;;;;;;;;;;5056301;28;20052;-59
2023/04/17 08:27:50;;;;;;;10.43;7.97;;;;;;;;;;5055897;28;20029;-60
2023/04/17 08:30:16;;;;;;;11.57;7.57;;;;;;;;;;5055645;28;20044;-60
2023/04/17 08:32:44;;;;;;;10.13;8.73;;;;;;;;;;5055783;28;20025;-60
2023/04/17 08:35:10;;;;;;;11.88;9.05;;;;;;;;;;5055471;28;20025;-60
2023/04/17 08:37:36;;;;;;;9.48;7.43;;;;;;;;;;5055497;28;20021;-59
2023/04/17 08:40:03;;;;;;;14.57;8.52;;;;;;;;;;5055235;28;20481;-58
2023/04/17 08:42:30;;;;;;;13.30;8.50;;;;;;;;;;5055066;28;20121;-59
2023/04/17 08:45:00;;;;;;;9.13;7.22;;;;;;;;;;5055286;28;20442;-58
2023/04/17 08:47:26;;;;;;;11.18;7.68;;;;;;;;;;5055843;28;20083;-58
2023/04/17 08:49:54;;;;;;;7.75;6.93;;;;;;;;;;5055428;28;20037;-58
2023/04/17 08:52:20;;;;;;;11.40;8.48;;;;;;;;;;5055299;28;20059;-59
2023/04/17 08:54:47;;;;;;;10.20;8.07;;;;;;;;;;5055521;28;20060;-59
2023/04/17 08:57:13;;;;;;;12.60;8.27;;;;;;;;;;5055707;28;20433;-59
2023/04/17 08:59:41;;;;;;;9.65;7.70;;;;;;;;;;5054926;28;20112;-59
2023/04/17 09:02:08;;;;;;;13.65;8.38;;;;;;;;;;5055037;28;20455;-59
2023/04/17 09:04:40;;;;;;;12.07;8.07;;;;;;;;;;5055147;28;20025;-60
2023/04/17 09:07:07;;;;;;;12.02;7.47;;;;;;;;;;5055117;28;20108;-60
2023/04/17 09:09:46;;;;;;;9.07;6.43;;;;;;;;;;5055048;28;20033;-59
2023/04/17 09:12:12;;;;;;;9.48;7.35;;;;;;;;;;5055320;28;20083;-60
2023/04/17 09:14:38;;;;;;;9.15;7.70;;;;;;;;;;5055245;28;20045;-59
2023/04/17 09:17:04;;;;;;;11.32;7.35;;;;;;;;;;5054590;28;20082;-60
2023/04/17 09:19:30;;;;;;;11.60;8.30;;;;;;;;;;5055040;28;20466;-59
2023/04/17 09:21:56;;;;;;;8.18;6.25;;;;;;;;;;5055260;28;20329;-59
2023/04/17 09:24:33;;;;;;;8.82;6.53;;;;;;;;;;5054444;28;20029;-60
2023/04/17 09:27:17;;;;;;;11.25;7.25;;;;;;;;;;5054496;28;20387;-59
2023/04/17 09:30:02;;;;;;;9.80;6.68;;;;;;;;;;5054516;28;20028;-59
2023/04/17 09:32:30;;;;;;;7.97;6.07;;;;;;;;;;5054444;28;20032;-60
2023/04/17 09:34:57;;;;;;;7.97;7.15;;;;;;;;;;5054478;28;20021;-59
2023/04/17 09:37:23;;;;;;;6.20;5.43;;;;;;;;;;5055068;28;20024;-59
2023/04/17 09:39:59;;;;;;;8.93;6.82;;;;;;;;;;5054437;28;20104;-59
2023/04/17 09:42:26;;;;;;;9.32;7.30;;;;;;;;;;5054553;28;20107;-60
2023/04/17 09:44:53;;;;;;;8.90;5.97;;;;;;;;;;5054650;28;20021;-59
2023/04/17 09:47:19;;;;;;;7.25;6.00;;;;;;;;;;5055078;28;20029;-59
2023/04/17 09:49:51;;;;;;;8.73;6.03;;;;;;;;;;5054037;28;20025;-60
2023/04/17 09:52:17;;;;;;;10.10;7.03;;;;;;;;;;5053910;28;20536;-60
2023/04/17 09:54:43;;;;;;;10.27;6.00;;;;;;;;;;5054419;28;20028;-59
2023/04/17 09:57:09;;;;;;;5.32;3.83;;;;;;;;;;5054606;28;20067;-59
2023/04/17 09:59:38;;;;;;;7.63;5.32;;;;;;;;;;5054559;28;20029;-59
2023/04/17 10:02:08;;;;;;;9.88;6.70;;;;;;;;;;5053921;28;20033;-59
2023/04/17 10:04:34;;;;;;;6.90;5.53;;;;;;;;;;5054105;28;20036;-59
2023/04/17 10:07:01;;;;;;;8.60;5.75;;;;;;;;;;5053993;28;20036;-59
2023/04/17 10:09:27;;;;;;;8.43;5.65;;;;;;;;;;5053844;28;20021;-59
2023/04/17 10:11:55;;;;;;;9.60;6.22;;;;;;;;;;5053841;28;20132;-60
2023/04/17 10:14:24;;;;;;;7.80;6.43;;;;;;;;;;5054239;28;20060;-59
2023/04/17 10:16:50;;;;;;;5.75;4.60;;;;;;;;;;5054296;28;20041;-59
2023/04/17 10:19:23;;;;;;;7.78;6.03;;;;;;;;;;5053798;28;20107;-59
2023/04/17 10:22:08;;;;;;;5.72;5.07;;;;;;;;;;5053844;28;20371;-59
2023/04/17 10:24:34;;;;;;;8.35;6.22;;;;;;;;;;5052963;28;20018;-59
2023/04/17 10:27:01;;;;;;;11.35;5.93;;;;;;;;;;5054100;28;20036;-59
2023/04/17 10:29:46;;;;;;;8.23;6.10;;;;;;;;;;5053693;28;20017;-59
2023/04/17 10:32:14;;;;;;;6.72;5.53;;;;;;;;;;5053639;28;20025;-60
2023/04/17 10:34:40;;;;;;;10.10;6.63;;;;;;;;;;5053549;28;20029;-59
2023/04/17 10:37:06;;;;;;;8.82;6.82;;;;;;;;;;5053825;28;20344;-60
2023/04/17 10:39:51;;;;;;;7.93;5.93;;;;;;;;;;5053588;28;20068;-60
2023/04/17 10:42:18;;;;;;;8.55;6.68;;;;;;;;;;5053421;28;20029;-60
2023/04/17 10:44:45;;;;;;;9.10;5.78;;;;;;;;;;5054031;28;20021;-59
2023/04/17 10:47:14;;;;;;;7.18;6.18;;;;;;;;;;5054140;28;20029;-59
2023/04/17 10:49:59;;;;;;;9.00;6.13;;;;;;;;;;5053505;28;20048;-60
2023/04/17 10:52:34;;;;;;;9.25;6.63;;;;;;;;;;5053493;28;20036;-60
2023/04/17 10:55:03;;;;;;;7.20;5.97;;;;;;;;;;5053484;28;20055;-59
2023/04/17 10:57:48;;;;;;;9.50;6.53;;;;;;;;;;5053863;28;20083;-60
2023/04/17 11:00:14;;;;;;;7.95;5.93;;;;;;;;;;5053652;28;20033;-59
2023/04/17 11:02:40;;;;;;;6.00;5.35;;;;;;;;;;5053412;28;20025;-59
2023/04/17 11:05:06;;;;;;;7.13;6.13;;;;;;;;;;5053504;28;20090;-59
2023/04/17 11:07:34;;;;;;;6.40;4.95;;;;;;;;;;5053786;28;20040;-59
2023/04/17 11:10:05;;;;;;;9.18;5.63;;;;;;;;;;5053275;28;20533;-59
2023/04/17 11:12:31;;;;;;;6.80;5.57;;;;;;;;;;5053310;28;20061;-59
2023/04/17 11:15:05;;;;;;;6.63;5.30;;;;;;;;;;5052866;28;20398;-59
2023/04/17 11:17:31;;;;;;;6.35;4.85;;;;;;;;;;5053351;28;20070;-59
2023/04/17 11:19:57;;;;;;;7.07;5.53;;;;;;;;;;5053427;28;20029;-59
2023/04/17 11:22:23;;;;;;;6.43;4.63;;;;;;;;;;5052906;28;20099;-59
2023/04/17 11:24:52;;;;;;;7.80;6.63;;;;;;;;;;5054074;28;20106;-59
2023/04/17 11:27:18;;;;;;;6.88;5.53;;;;;;;;;;5053399;28;20112;-59
2023/04/17 11:29:44;;;;;;;6.80;5.22;;;;;;;;;;5053117;28;20025;-59
2023/04/17 11:32:11;;;;;;;5.55;5.05;;;;;;;;;;5052976;28;20056;-59
2023/04/17 11:34:37;;;;;;;6.70;5.57;;;;;;;;;;5053290;28;20021;-59
2023/04/17 11:37:03;;;;;;;6.05;4.95;;;;;;;;;;5056902;28;20040;-59
2023/04/17 11:39:33;;;;;;;5.28;4.03;;;;;;;;;;5056666;28;20348;-59
2023/04/17 11:42:01;;;;;;;5.95;4.30;;;;;;;;;;5056627;28;20033;-59
2023/04/17 11:44:28;;;;;;;5.53;4.13;;;;;;;;;;5056252;28;20467;-59
2023/04/17 11:46:57;;;;;;;5.35;3.92;;;;;;;;;;5057381;28;20078;-59
2023/04/17 11:49:32;;;;;;;5.25;4.32;;;;;;;;;;5056509;28;20096;-58
2023/04/17 11:52:00;;;;;;;4.97;3.60;;;;;;;;;;5056824;28;20079;-59
2023/04/17 11:54:26;;;;;;;5.80;3.95;;;;;;;;;;5056874;28;20100;-59
2023/04/17 11:57:00;;;;;;;4.13;3.45;;;;;;;;;;5057098;28;20472;-59
2023/04/17 11:59:33;;;;;;;4.85;3.50;;;;;;;;;;5056249;28;20033;-57
2023/04/17 12:02:00;;;;;;;4.47;3.08;;;;;;;;;;5056857;28;20033;-57
2023/04/17 12:04:28;;;;;;;4.07;3.35;;;;;;;;;;5056191;28;20371;-57
2023/04/17 12:06:54;;;;;;;3.78;3.25;;;;;;;;;;5056682;28;20040;-56
2023/04/17 12:09:22;;;;;;;5.22;3.38;;;;;;;;;;5056025;28;20371;-57
2023/04/17 12:11:48;;;;;;;5.63;4.20;;;;;;;;;;5055607;28;20028;-57
2023/04/17 12:14:14;;;;;;;4.78;3.58;;;;;;;;;;5055819;28;20053;-57
2023/04/17 12:16:40;;;;;;;5.07;3.50;;;;;;;;;;5055873;28;20086;-57
2023/04/17 12:19:07;;;;;;;5.78;4.65;;;;;;;;;;5056436;28;20025;-57
2023/04/17 12:21:33;;;;;;;4.70;3.63;;;;;;;;;;5055923;28;20086;-58
2023/04/17 12:23:59;;;;;;;4.63;4.10;;;;;;;;;;5055573;28;20100;-57
2023/04/17 12:26:25;;;;;;;4.93;3.25;;;;;;;;;;5056421;28;20074;-58
2023/04/17 12:28:51;;;;;;;5.22;3.67;;;;;;;;;;5055764;28;20021;-58
2023/04/17 12:31:17;;;;;;;7.47;4.75;;;;;;;;;;5056052;28;20025;-59
2023/04/17 12:33:43;;;;;;;5.10;3.97;;;;;;;;;;5056010;28;20025;-59
2023/04/17 12:36:09;;;;;;;3.90;3.20;;;;;;;;;;5055702;28;20098;-59
2023/04/17 12:38:35;;;;;;;5.50;4.20;;;;;;;;;;5056107;28;20060;-59
2023/04/17 12:41:01;;;;;;;5.85;4.57;;;;;;;;;;5055386;28;20040;-58
2023/04/17 12:43:27;;;;;;;5.90;4.40;;;;;;;;;;5055055;28;20375;-58
2023/04/17 12:45:53;;;;;;;6.18;4.43;;;;;;;;;;5055715;28;20379;-59
2023/04/17 12:48:19;;;;;;;5.20;4.63;;;;;;;;;;5055094;28;20449;-58
2023/04/17 12:50:45;;;;;;;5.28;4.15;;;;;;;;;;5055224;28;20352;-59
2023/04/17 12:53:12;;;;;;;4.65;4.00;;;;;;;;;;5055779;28;20106;-59
2023/04/17 12:55:42;;;;;;;5.15;4.25;;;;;;;;;;5055451;28;20068;-59
2023/04/17 12:58:09;;;;;;;5.85;4.45;;;;;;;;;;5055569;28;20074;-59
2023/04/17 13:00:35;;;;;;;5.15;3.92;;;;;;;;;;5054942;28;20029;-59
2023/04/17 13:03:01;;;;;;;7.05;5.43;;;;;;;;;;5054835;28;20017;-60
2023/04/17 13:05:28;;;;;;;6.25;4.72;;;;;;;;;;5055412;28;20032;-60
2023/04/17 13:07:54;;;;;;;7.00;4.93;;;;;;;;;;5055510;28;20363;-60
2023/04/17 13:10:20;;;;;;;5.07;4.13;;;;;;;;;;5055506;28;20029;-60
2023/04/17 13:12:46;;;;;;;5.93;4.50;;;;;;;;;;5054908;28;20029;-60
2023/04/17 13:15:12;;;;;;;6.05;5.18;;;;;;;;;;5055130;28;20174;-60
2023/04/17 13:17:38;;;;;;;8.40;6.00;;;;;;;;;;5054441;28;20471;-60
2023/04/17 13:20:05;;;;;;;6.45;5.75;;;;;;;;;;5054786;28;20033;-60
2023/04/17 13:22:31;;;;;;;6.75;4.85;;;;;;;;;;5055417;28;20352;-60
2023/04/17 13:24:58;;;;;;;7.07;4.60;;;;;;;;;;5055008;28;20023;-60
2023/04/17 13:27:24;;;;;;;6.30;5.68;;;;;;;;;;5054430;28;20029;-60
2023/04/17 13:29:50;;;;;;;7.28;6.03;;;;;;;;;;5054514;28;20456;-60
2023/04/17 13:32:16;;;;;;;6.93;4.97;;;;;;;;;;5054838;28;20031;-60
2023/04/17 13:34:42;;;;;;;6.75;5.32;;;;;;;;;;5054393;28;20100;-60
2023/04/17 13:37:09;;;;;;;6.18;4.50;;;;;;;;;;5054683;28;20033;-60
2023/04/17 13:39:35;;;;;;;7.10;5.82;;;;;;;;;;5054665;28;20090;-60
2023/04/17 13:42:01;;;;;;;7.30;5.05;;;;;;;;;;5054508;28;20060;-60
2023/04/17 13:44:27;;;;;;;5.80;4.85;;;;;;;;;;5054241;28;20032;-60
2023/04/17 13:46:53;;;;;;;6.13;4.18;;;;;;;;;;5055140;28;20028;-60
2023/04/17 13:49:19;;;;;;;4.28;3.40;;;;;;;;;;5054157;28;20025;-60
2023/04/17 13:51:46;;;;;;;5.63;4.60;;;;;;;;;;5054428;28;20060;-60
2023/04/17 13:54:11;;;;;;;5.25;3.83;;;;;;;;;;5054181;28;20024;-60
2023/04/17 13:56:37;;;;;;;8.48;3.90;;;;;;;;;;5054624;28;20086;-60
2023/04/17 13:59:04;;;;;;;6.25;3.97;;;;;;;;;;5053476;28;20021;-60
2023/04/17 14:01:30;;;;;;;5.75;3.92;;;;;;;;;;5054455;28;20313;-60
2023/04/17 14:03:59;;;;;;;5.57;4.13;;;;;;;;;;5054311;28;20025;-60
2023/04/17 14:06:26;;;;;;;4.97;4.47;;;;;;;;;;5054264;28;20047;-60
2023/04/17 14:08:53;;;;;;;4.65;3.83;;;;;;;;;;5053596;28;20047;-60
2023/04/17 14:11:19;;;;;;;14.52;4.65;;;;;;;;;;5053537;28;20556;-60
2023/04/17 14:13:45;;;;;;;7.35;4.65;;;;;;;;;;5053949;28;20352;-60
2023/04/17 14:16:11;;;;;;;4.65;3.47;;;;;;;;;;5053593;28;20033;-60
2023/04/17 14:18:39;;;;;;;5.40;4.13;;;;;;;;;;5054616;28;20048;-60
2023/04/17 14:21:05;;;;;;;6.00;4.32;;;;;;;;;;5053835;28;20386;-60
2023/04/17 14:23:31;;;;;;;6.75;4.40;;;;;;;;;;5053733;28;20025;-59
2023/04/17 14:25:57;;;;;;;5.03;3.45;;;;;;;;;;5054319;28;20409;-60